createdAt,value
2023-06-28T00:00:20.795Z,63.29
2023-06-28T00:02:47.443Z,63.27
2023-06-28T00:05:14.415Z,63.43
2023-06-28T00:07:41.364Z,63.68
2023-06-28T00:10:08.098Z,64.42
2023-06-28T00:12:34.759Z,63.90
2023-06-28T00:15:01.325Z,63.27
2023-06-28T00:17:30.673Z,61.90
2023-06-28T00:20:07.067Z,62.46
2023-06-28T00:22:34.201Z,62.28
2023-06-28T00:25:02.580Z,63.27
2023-06-28T00:27:28.988Z,64.10
2023-06-28T00:29:57.086Z,64.97
2023-06-28T00:32:27.759Z,64.89
2023-06-28T00:34:54.376Z,65.84
2023-06-28T00:37:21.136Z,65.79
2023-06-28T00:39:47.614Z,65.55
2023-06-28T00:42:14.152Z,65.59
2023-06-28T00:44:40.586Z,65.89
2023-06-28T00:47:07.561Z,65.20
2023-06-28T00:49:38.053Z,64.53
2023-06-28T00:52:06.551Z,64.27
2023-06-28T00:54:33.050Z,64.80
2023-06-28T00:57:00.665Z,63.99
2023-06-28T00:59:27.873Z,64.12
2023-06-28T01:01:54.563Z,65.25
2023-06-28T01:04:21.159Z,65.02
2023-06-28T01:06:54.385Z,65.45
2023-06-28T01:09:25.506Z,65.65
2023-06-28T01:11:54.138Z,66.49
2023-06-28T01:14:22.605Z,67.08
2023-06-28T01:16:55.700Z,67.89
2023-06-28T01:19:24.688Z,67.62
2023-06-28T01:22:00.438Z,67.67
2023-06-28T01:24:27.488Z,68.22
2023-06-28T01:26:54.921Z,68.23
2023-06-28T01:29:22.969Z,68.45
2023-06-28T01:31:54.111Z,67.42
2023-06-28T01:34:21.012Z,67.28
2023-06-28T01:36:49.016Z,65.90
2023-06-28T01:39:18.836Z,65.77
2023-06-28T01:41:46.647Z,65.00
2023-06-28T01:44:13.972Z,64.47
2023-06-28T01:46:41.116Z,64.89
2023-06-28T01:49:08.686Z,64.98
2023-06-28T01:51:36.254Z,65.38
2023-06-28T01:54:03.940Z,65.55
2023-06-28T01:56:31.074Z,65.44
2023-06-28T01:58:57.628Z,64.94
2023-06-28T02:01:24.417Z,65.62
2023-06-28T02:03:50.969Z,65.37
2023-06-28T02:06:17.510Z,65.33
2023-06-28T02:08:43.947Z,65.44
2023-06-28T02:11:10.384Z,65.12
2023-06-28T02:13:36.868Z,65.16
2023-06-28T02:16:03.501Z,65.24
2023-06-28T02:18:32.488Z,65.54
2023-06-28T02:20:59.077Z,65.99
2023-06-28T02:23:25.759Z,65.39
2023-06-28T02:25:52.360Z,65.22
2023-06-28T02:28:20.575Z,65.24
2023-06-28T02:30:47.578Z,65.22
2023-06-28T02:33:14.161Z,66.15
2023-06-28T02:35:40.729Z,66.65
2023-06-28T02:38:07.155Z,66.41
2023-06-28T02:40:33.689Z,66.38
2023-06-28T02:43:00.133Z,66.66
2023-06-28T02:45:26.570Z,67.76
2023-06-28T02:47:53.064Z,66.26
2023-06-28T02:50:19.849Z,68.13
2023-06-28T02:52:46.358Z,68.11
2023-06-28T02:55:13.744Z,69.50
2023-06-28T02:57:40.647Z,69.86
2023-06-28T03:00:08.985Z,69.58
2023-06-28T03:02:35.717Z,71.64
2023-06-28T03:05:02.335Z,70.81
2023-06-28T03:07:28.843Z,71.28
2023-06-28T03:09:55.368Z,71.73
2023-06-28T03:12:21.828Z,69.90
2023-06-28T03:14:48.343Z,69.59
2023-06-28T03:17:14.788Z,69.69
2023-06-28T03:19:41.323Z,69.92
2023-06-28T03:22:07.799Z,69.31
2023-06-28T03:24:34.357Z,68.88
2023-06-28T03:27:00.885Z,68.48
2023-06-28T03:29:27.353Z,67.82
2023-06-28T03:31:56.194Z,67.69
2023-06-28T03:34:22.813Z,67.96
2023-06-28T03:37:02.709Z,67.57
2023-06-28T03:39:29.793Z,68.10
2023-06-28T03:41:56.201Z,69.27
2023-06-28T03:44:22.693Z,68.92
2023-06-28T03:46:49.134Z,68.93
2023-06-28T03:49:15.655Z,69.55
2023-06-28T03:51:42.122Z,68.64
2023-06-28T03:54:08.550Z,69.55
2023-06-28T03:56:35.010Z,69.33
2023-06-28T03:59:01.502Z,69.47
2023-06-28T04:01:27.913Z,69.19
2023-06-28T04:03:54.485Z,69.97
2023-06-28T04:06:21.077Z,69.61
2023-06-28T04:08:48.126Z,70.23
2023-06-28T04:11:14.683Z,69.82
2023-06-28T04:13:41.107Z,70.46
2023-06-28T04:16:07.569Z,69.96
2023-06-28T04:18:34.053Z,70.96
2023-06-28T04:21:03.574Z,69.95
2023-06-28T04:23:30.076Z,69.70
2023-06-28T04:26:01.653Z,68.62
2023-06-28T04:28:33.118Z,69.43
2023-06-28T04:31:01.244Z,69.87
2023-06-28T04:33:31.338Z,70.92
2023-06-28T04:36:09.416Z,69.78
2023-06-28T04:39:06.495Z,69.67
2023-06-28T04:41:43.817Z,70.52
2023-06-28T04:44:13.197Z,70.19
2023-06-28T04:46:45.744Z,70.87
2023-06-28T04:49:15.531Z,70.73
2023-06-28T04:51:52.433Z,70.89
2023-06-28T04:54:26.684Z,70.59
2023-06-28T04:57:02.172Z,70.77
2023-06-28T05:02:23.830Z,70.31
2023-06-28T05:04:50.576Z,71.26
2023-06-28T05:07:24.394Z,71.17
2023-06-28T05:09:58.798Z,70.64
2023-06-28T05:12:29.290Z,70.39
2023-06-28T05:14:57.700Z,69.60
2023-06-28T05:17:24.300Z,70.43
2023-06-28T05:19:50.829Z,69.56
2023-06-28T05:22:17.372Z,69.12
2023-06-28T05:24:43.790Z,70.14
2023-06-28T05:27:10.276Z,69.81
2023-06-28T05:29:37.098Z,70.30
2023-06-28T05:32:04.055Z,69.94
2023-06-28T05:34:30.676Z,69.97
2023-06-28T05:36:57.191Z,70.31
2023-06-28T05:39:23.684Z,69.93
2023-06-28T05:41:50.115Z,68.38
2023-06-28T05:44:19.249Z,68.62
2023-06-28T05:46:45.827Z,67.95
2023-06-28T05:49:12.671Z,68.80
2023-06-28T05:51:39.114Z,68.44
2023-06-28T05:54:05.849Z,67.91
2023-06-28T05:56:32.795Z,67.38
2023-06-28T05:58:59.451Z,67.27
2023-06-28T06:01:26.016Z,67.41
2023-06-28T06:03:52.676Z,68.64
2023-06-28T06:06:20.389Z,69.14
2023-06-28T06:08:46.953Z,68.64
2023-06-28T06:11:13.610Z,68.54
2023-06-28T06:13:40.102Z,69.21
2023-06-28T06:16:06.601Z,68.56
2023-06-28T06:18:34.942Z,66.83
2023-06-28T06:21:01.381Z,66.69
2023-06-28T06:23:27.842Z,67.08
2023-06-28T06:25:54.309Z,67.74
2023-06-28T06:28:20.826Z,67.38
2023-06-28T06:30:47.709Z,65.93
2023-06-28T06:33:14.635Z,65.02
2023-06-28T06:35:41.276Z,66.32
2023-06-28T06:38:07.855Z,66.53
2023-06-28T06:40:34.940Z,66.20
2023-06-28T06:43:01.713Z,66.51
2023-06-28T06:45:28.282Z,66.59
2023-06-28T06:47:54.822Z,66.15
2023-06-28T06:50:21.323Z,66.74
2023-06-28T06:52:47.871Z,66.18
2023-06-28T06:55:14.677Z,66.09
2023-06-28T06:57:43.058Z,65.83
2023-06-28T07:00:23.294Z,65.17
2023-06-28T07:08:47.005Z,65.50
2023-06-28T07:11:13.632Z,64.39
2023-06-28T07:13:40.049Z,65.27
2023-06-28T07:16:06.498Z,65.56
2023-06-28T07:18:33.154Z,64.88
2023-06-28T07:20:59.720Z,66.31
2023-06-28T07:23:26.173Z,64.10
2023-06-28T07:25:52.659Z,65.07
2023-06-28T07:28:19.181Z,64.27
2023-06-28T07:30:54.814Z,64.81
2023-06-28T07:33:23.404Z,65.03
2023-06-28T07:35:50.830Z,66.79
2023-06-28T07:38:19.476Z,65.28
2023-06-28T07:40:47.188Z,65.13
2023-06-28T07:43:15.150Z,64.21
2023-06-28T07:45:42.152Z,63.80
2023-06-28T07:48:09.169Z,63.01
2023-06-28T07:50:36.259Z,63.62
2023-06-28T07:53:03.487Z,62.10
2023-06-28T07:55:30.930Z,64.10
2023-06-28T07:57:58.303Z,62.81
2023-06-28T08:00:28.213Z,60.86
2023-06-28T08:02:54.798Z,61.48
2023-06-28T08:05:21.490Z,60.56
2023-06-28T08:07:49.622Z,59.63
2023-06-28T08:10:16.392Z,58.12
2023-06-28T08:12:42.869Z,57.64
2023-06-28T08:15:09.900Z,55.92
2023-06-28T08:17:36.677Z,54.23
2023-06-28T08:20:03.415Z,53.76
2023-06-28T08:22:29.981Z,54.54
2023-06-28T08:24:56.480Z,54.38
2023-06-28T08:27:22.948Z,54.04
2023-06-28T08:29:49.359Z,53.43
2023-06-28T08:32:16.050Z,50.17
2023-06-28T08:34:42.576Z,50.10
2023-06-28T08:37:09.746Z,50.44
2023-06-28T08:39:39.204Z,49.97
2023-06-28T08:42:06.394Z,50.71
2023-06-28T08:44:34.201Z,51.85
2023-06-28T08:47:01.987Z,49.73
2023-06-28T08:49:29.338Z,50.02
2023-06-28T08:51:56.612Z,49.83
2023-06-28T08:54:25.636Z,49.18
2023-06-28T08:57:05.584Z,48.41
2023-06-28T08:59:39.338Z,50.75
2023-06-28T09:02:09.601Z,48.49
2023-06-28T09:04:37.300Z,49.40
2023-06-28T09:07:04.810Z,49.98
2023-06-28T09:09:32.071Z,49.71
2023-06-28T09:11:59.243Z,49.34
2023-06-28T09:14:25.716Z,50.01
2023-06-28T09:16:52.136Z,50.31
2023-06-28T09:19:18.652Z,49.14
2023-06-28T09:21:46.763Z,49.83
2023-06-28T09:24:14.297Z,50.36
2023-06-28T09:26:44.917Z,51.53
2023-06-28T09:29:13.266Z,50.36
2023-06-28T09:31:43.800Z,51.07
2023-06-28T09:34:10.907Z,50.43
2023-06-28T09:36:38.406Z,51.65
2023-06-28T09:39:06.043Z,51.90
2023-06-28T09:41:38.450Z,51.17
2023-06-28T09:44:06.212Z,50.99
2023-06-28T09:46:33.962Z,50.74
2023-06-28T09:49:00.791Z,50.64
2023-06-28T09:51:28.006Z,49.85
2023-06-28T09:53:55.646Z,49.27
2023-06-28T09:56:34.309Z,49.28
2023-06-28T09:59:03.457Z,48.74
2023-06-28T10:01:30.536Z,48.53
2023-06-28T10:03:59.587Z,48.09
2023-06-28T10:06:28.605Z,49.27
2023-06-28T10:08:56.192Z,48.59
2023-06-28T10:11:23.227Z,50.16
2023-06-28T10:13:50.266Z,49.96
2023-06-28T10:16:19.695Z,48.91
2023-06-28T10:18:46.247Z,48.68
2023-06-28T10:21:12.987Z,49.66
2023-06-28T10:23:41.460Z,48.41
2023-06-28T10:26:09.137Z,49.10
2023-06-28T10:28:36.437Z,48.75
2023-06-28T10:31:04.461Z,46.79
2023-06-28T10:33:34.989Z,47.21
2023-06-28T10:36:01.812Z,47.72
2023-06-28T10:38:38.434Z,48.66
2023-06-28T10:41:06.182Z,49.89
2023-06-28T10:43:32.772Z,50.06
2023-06-28T10:45:59.719Z,48.59
2023-06-28T10:48:28.246Z,48.36
2023-06-28T10:50:59.319Z,48.04
2023-06-28T10:53:28.414Z,45.90
2023-06-28T10:56:13.811Z,45.88
2023-06-28T10:58:42.574Z,45.39
2023-06-28T11:01:11.153Z,44.25
2023-06-28T11:03:43.231Z,44.39
2023-06-28T11:06:12.034Z,44.76
2023-06-28T11:08:40.078Z,42.66
2023-06-28T11:11:08.432Z,43.37
2023-06-28T11:13:41.093Z,43.63
2023-06-28T11:16:12.335Z,44.68
2023-06-28T11:18:39.243Z,44.47
2023-06-28T11:21:13.292Z,42.85
2023-06-28T11:23:41.695Z,43.75
2023-06-28T11:26:13.296Z,43.54
2023-06-28T11:28:49.802Z,43.29
2023-06-28T11:31:26.022Z,42.15
2023-06-28T11:33:57.110Z,42.84
2023-06-28T11:36:25.776Z,41.41
2023-06-28T11:38:52.930Z,42.57
2023-06-28T11:41:19.447Z,41.80
2023-06-28T11:43:46.758Z,42.56
2023-06-28T11:46:23.470Z,41.62
2023-06-28T11:48:51.706Z,42.58
2023-06-28T11:51:18.631Z,41.39
2023-06-28T11:53:52.047Z,39.03
2023-06-28T11:56:18.505Z,40.56
2023-06-28T11:58:44.930Z,41.84
2023-06-28T12:01:24.771Z,42.08
2023-06-28T12:03:51.518Z,42.00
2023-06-28T12:06:18.165Z,40.50
2023-06-28T12:08:44.645Z,39.31
2023-06-28T12:11:16.584Z,40.86
2023-06-28T12:13:44.482Z,41.00
2023-06-28T12:16:18.265Z,41.11
2023-06-28T12:18:59.684Z,41.32
2023-06-28T12:21:28.785Z,42.34
2023-06-28T12:24:22.718Z,42.62
2023-06-28T12:26:50.447Z,41.54
2023-06-28T12:29:22.932Z,39.51
2023-06-28T12:31:51.855Z,38.51
2023-06-28T12:34:26.119Z,37.25
2023-06-28T12:37:01.536Z,37.85
2023-06-28T12:39:29.905Z,40.43
2023-06-28T12:42:05.702Z,40.11
2023-06-28T12:44:49.186Z,39.79
2023-06-28T12:47:15.903Z,36.55
2023-06-28T12:49:42.483Z,37.98
2023-06-28T12:52:08.980Z,36.92
2023-06-28T12:54:35.403Z,35.75
2023-06-28T12:57:04.289Z,37.48
2023-06-28T12:59:32.401Z,36.47
2023-06-28T13:01:59.087Z,36.35
2023-06-28T13:04:28.073Z,36.50
2023-06-28T13:06:54.630Z,37.36
2023-06-28T13:09:21.565Z,39.26
2023-06-28T13:11:48.136Z,41.56
2023-06-28T13:14:16.534Z,40.73
2023-06-28T13:16:44.051Z,40.28
2023-06-28T13:19:10.957Z,39.29
2023-06-28T13:21:37.446Z,39.74
2023-06-28T13:24:04.531Z,39.86
2023-06-28T13:26:31.608Z,38.62
2023-06-28T13:28:58.046Z,37.02
2023-06-28T13:31:24.699Z,38.40
2023-06-28T13:33:51.159Z,39.28
2023-06-28T13:36:22.467Z,40.35
2023-06-28T13:38:49.436Z,41.05
2023-06-28T13:41:15.974Z,41.30
2023-06-28T13:43:42.414Z,41.59
2023-06-28T13:46:08.988Z,38.97
2023-06-28T13:48:35.439Z,38.20
2023-06-28T13:51:02.133Z,33.41
2023-06-28T13:53:28.731Z,31.85
2023-06-28T13:55:55.337Z,30.52
2023-06-28T13:58:21.817Z,32.73
2023-06-28T14:00:49.094Z,33.18
2023-06-28T14:03:15.708Z,33.56
2023-06-28T14:05:42.366Z,34.58
2023-06-28T14:08:09.033Z,33.08
2023-06-28T14:10:35.540Z,35.21
2023-06-28T14:13:02.024Z,35.13
2023-06-28T14:15:28.431Z,35.73
2023-06-28T14:17:55.003Z,36.57
2023-06-28T14:20:21.482Z,38.55
2023-06-28T14:22:51.763Z,40.58
2023-06-28T14:25:18.616Z,41.87
2023-06-28T14:27:45.074Z,40.06
2023-06-28T14:30:12.640Z,39.88
2023-06-28T14:32:40.877Z,38.91
2023-06-28T14:35:07.968Z,36.33
2023-06-28T14:37:34.441Z,36.13
2023-06-28T14:40:00.914Z,38.41
2023-06-28T14:42:27.404Z,39.66
2023-06-28T14:44:54.003Z,40.24
2023-06-28T14:47:20.496Z,40.59
2023-06-28T14:49:47.096Z,40.60
2023-06-28T14:52:13.641Z,39.83
2023-06-28T14:54:40.126Z,38.62
2023-06-28T14:57:06.981Z,38.83
2023-06-28T14:59:33.470Z,38.86
2023-06-28T15:01:59.984Z,37.51
2023-06-28T15:04:29.035Z,38.26
2023-06-28T15:06:56.008Z,38.24
2023-06-28T15:09:22.718Z,38.95
2023-06-28T15:11:49.272Z,39.84
2023-06-28T15:14:16.050Z,40.03
2023-06-28T15:16:42.722Z,40.51
2023-06-28T15:19:09.473Z,40.86
2023-06-28T15:21:35.960Z,40.80
2023-06-28T15:24:04.231Z,41.53
2023-06-28T15:26:31.256Z,41.24
2023-06-28T15:28:59.606Z,41.24
2023-06-28T15:31:26.329Z,41.69
2023-06-28T15:33:53.141Z,41.77
2023-06-28T15:36:19.792Z,41.55
2023-06-28T15:38:46.469Z,42.16
2023-06-28T15:41:12.940Z,42.70
2023-06-28T15:43:40.656Z,42.41
2023-06-28T15:46:12.384Z,41.28
2023-06-28T15:48:38.929Z,41.71
2023-06-28T15:51:05.414Z,41.83
2023-06-28T15:53:31.834Z,41.98
2023-06-28T15:55:58.498Z,41.30
2023-06-28T15:58:28.425Z,41.35
2023-06-28T16:00:57.549Z,41.75
2023-06-28T16:03:24.342Z,41.79
2023-06-28T16:05:50.879Z,42.12
2023-06-28T16:08:17.288Z,42.83
2023-06-28T16:10:43.904Z,43.09
2023-06-28T16:13:14.815Z,43.14
2023-06-28T16:15:41.402Z,43.72
2023-06-28T16:18:07.973Z,43.74
2023-06-28T16:20:34.481Z,44.30
2023-06-28T16:23:01.081Z,44.70
2023-06-28T16:25:27.523Z,45.56
2023-06-28T16:27:53.998Z,45.92
2023-06-28T16:30:20.487Z,46.33
2023-06-28T16:32:46.959Z,46.25
2023-06-28T16:35:13.597Z,45.83
2023-06-28T16:37:40.838Z,46.20
2023-06-28T16:40:07.912Z,46.05
2023-06-28T16:42:34.361Z,46.34
2023-06-28T16:45:00.860Z,45.97
2023-06-28T16:47:27.453Z,45.77
2023-06-28T16:49:54.055Z,46.20
2023-06-28T16:52:20.515Z,45.94
2023-06-28T16:54:47.121Z,45.88
2023-06-28T16:57:13.573Z,46.23
2023-06-28T16:59:40.009Z,46.18
2023-06-28T17:02:06.773Z,46.08
2023-06-28T17:04:33.201Z,46.61
2023-06-28T17:06:59.692Z,46.64
2023-06-28T17:09:27.490Z,47.03
2023-06-28T17:11:53.989Z,46.83
2023-06-28T17:14:20.465Z,47.11
2023-06-28T17:16:46.996Z,47.44
2023-06-28T17:19:13.483Z,47.71
2023-06-28T17:21:39.892Z,48.21
2023-06-28T17:24:07.597Z,47.90
2023-06-28T17:26:34.405Z,48.36
2023-06-28T17:29:00.896Z,48.23
2023-06-28T17:31:27.810Z,47.83
2023-06-28T17:33:54.647Z,48.10
2023-06-28T17:36:22.209Z,48.02
2023-06-28T17:38:48.674Z,48.42
2023-06-28T17:41:15.435Z,48.53
2023-06-28T17:43:42.560Z,48.67
2023-06-28T17:46:09.312Z,48.52
2023-06-28T17:48:35.841Z,49.09
2023-06-28T17:51:02.473Z,49.21
2023-06-28T17:53:28.868Z,49.58
2023-06-28T17:55:56.261Z,50.27
2023-06-28T17:58:22.743Z,49.90
2023-06-28T18:00:49.167Z,49.54
2023-06-28T18:03:15.614Z,49.09
2023-06-28T18:05:42.137Z,50.05
2023-06-28T18:08:08.994Z,50.17
2023-06-28T18:10:35.569Z,50.16
2023-06-28T18:13:02.537Z,50.14
2023-06-28T18:15:29.442Z,50.54
2023-06-28T18:17:55.945Z,50.42
2023-06-28T18:20:22.486Z,50.11
2023-06-28T18:22:49.026Z,50.16
2023-06-28T18:25:15.585Z,50.16
2023-06-28T18:27:42.444Z,50.55
2023-06-28T18:30:09.697Z,51.17
2023-06-28T18:32:36.334Z,51.15
2023-06-28T18:35:03.573Z,51.19
2023-06-28T18:37:39.104Z,51.02
2023-06-28T18:40:06.757Z,51.13
2023-06-28T18:42:33.448Z,50.89
2023-06-28T18:45:00.033Z,51.36
2023-06-28T18:47:26.574Z,51.20
2023-06-28T18:49:53.115Z,51.20
2023-06-28T18:52:19.978Z,51.46
2023-06-28T18:54:46.554Z,51.43
2023-06-28T18:57:13.297Z,51.81
2023-06-28T18:59:39.793Z,52.12
2023-06-28T19:02:06.608Z,52.53
2023-06-28T19:04:33.092Z,53.47
2023-06-28T19:07:00.339Z,53.52
2023-06-28T19:09:26.823Z,53.21
2023-06-28T19:11:53.327Z,53.53
2023-06-28T19:14:19.882Z,53.37
2023-06-28T19:16:46.430Z,53.98
2023-06-28T19:19:13.020Z,54.29
2023-06-28T19:21:39.501Z,54.36
2023-06-28T19:24:06.494Z,54.57
2023-06-28T19:26:33.007Z,55.06
2023-06-28T19:28:59.525Z,55.29
2023-06-28T19:31:26.432Z,55.68
2023-06-28T19:33:52.991Z,55.96
2023-06-28T19:36:19.535Z,56.30
2023-06-28T19:38:46.047Z,56.73
2023-06-28T19:41:12.480Z,57.49
2023-06-28T19:43:39.141Z,59.74
2023-06-28T19:46:05.683Z,61.42
2023-06-28T19:48:32.645Z,62.12
2023-06-28T19:51:01.866Z,62.87
2023-06-28T19:53:29.747Z,63.28
2023-06-28T19:55:56.301Z,64.58
2023-06-28T19:58:22.881Z,65.05
2023-06-28T20:00:49.390Z,66.02
2023-06-28T20:03:15.969Z,66.23
2023-06-28T20:05:42.626Z,67.01
2023-06-28T20:08:09.411Z,68.79
2023-06-28T20:10:36.077Z,69.74
2023-06-28T20:13:02.615Z,69.28
2023-06-28T20:15:29.092Z,68.59
2023-06-28T20:17:55.653Z,69.00
2023-06-28T20:20:22.334Z,71.33
2023-06-28T20:22:48.869Z,72.36
2023-06-28T20:25:15.415Z,71.44
2023-06-28T20:27:42.793Z,72.47
2023-06-28T20:30:10.709Z,73.60
2023-06-28T20:32:38.527Z,72.24
2023-06-28T20:35:06.900Z,72.39
2023-06-28T20:37:33.381Z,73.06
2023-06-28T20:40:01.813Z,72.83
2023-06-28T20:42:29.709Z,74.41
2023-06-28T20:44:56.685Z,75.04
2023-06-28T20:47:26.143Z,74.83
2023-06-28T20:49:53.060Z,77.66
2023-06-28T20:52:20.693Z,76.78
2023-06-28T20:54:47.241Z,76.31
2023-06-28T20:57:13.781Z,77.48
2023-06-28T20:59:40.239Z,76.62
2023-06-28T21:02:10.832Z,77.16
2023-06-28T21:04:37.475Z,76.43
2023-06-28T21:07:04.135Z,76.58
2023-06-28T21:09:30.630Z,76.83
2023-06-28T21:11:57.129Z,76.59
2023-06-28T21:14:23.593Z,77.75
2023-06-28T21:16:50.079Z,78.38
2023-06-28T21:19:16.534Z,78.08
2023-06-28T21:21:43.888Z,78.61
2023-06-28T21:24:10.798Z,79.27
2023-06-28T21:26:37.370Z,79.29
2023-06-28T21:29:03.876Z,80.61
2023-06-28T21:31:31.024Z,80.62
2023-06-28T21:33:57.628Z,80.78
2023-06-28T21:36:27.512Z,80.13
2023-06-28T21:38:54.010Z,80.41
2023-06-28T21:41:20.863Z,80.09
2023-06-28T21:43:47.462Z,80.50
2023-06-28T21:46:14.151Z,80.63
2023-06-28T21:48:40.617Z,81.70
2023-06-28T21:51:07.205Z,82.75
2023-06-28T21:53:33.820Z,82.41
2023-06-28T21:56:00.407Z,83.11
2023-06-28T21:58:28.723Z,83.43
2023-06-28T22:00:57.886Z,83.51
2023-06-28T22:03:25.556Z,82.48
2023-06-28T22:05:52.109Z,82.52
2023-06-28T22:08:18.703Z,82.85
2023-06-28T22:10:45.126Z,82.73
2023-06-28T22:13:12.259Z,83.87
2023-06-28T22:15:40.897Z,83.48
2023-06-28T22:18:12.046Z,83.02
2023-06-28T22:20:40.481Z,83.27
2023-06-28T22:23:07.910Z,83.61
2023-06-28T22:25:40.274Z,83.79
2023-06-28T22:28:07.241Z,83.96
2023-06-28T22:30:33.761Z,83.57
2023-06-28T22:33:00.320Z,83.23
2023-06-28T22:35:27.635Z,83.48
2023-06-28T22:37:58.088Z,83.28
2023-06-28T22:40:24.722Z,83.58
2023-06-28T22:42:51.214Z,83.30
2023-06-28T22:45:17.810Z,83.83
2023-06-28T22:47:44.672Z,84.62
2023-06-28T22:50:11.473Z,85.68
2023-06-28T22:52:42.500Z,86.49
2023-06-28T22:55:10.688Z,86.99
2023-06-28T22:57:38.543Z,86.40
2023-06-28T23:00:07.923Z,87.20
2023-06-28T23:02:34.463Z,86.99
2023-06-28T23:05:00.940Z,87.04
2023-06-28T23:07:29.616Z,86.91
2023-06-28T23:09:56.320Z,87.08
2023-06-28T23:12:22.999Z,86.87
2023-06-28T23:14:53.074Z,86.49
2023-06-28T23:17:20.129Z,86.87
2023-06-28T23:19:46.657Z,87.24
2023-06-28T23:22:13.156Z,87.19
2023-06-28T23:24:40.853Z,87.23
2023-06-28T23:27:07.392Z,87.64
2023-06-28T23:29:35.258Z,88.51
2023-06-28T23:32:02.009Z,87.78
2023-06-28T23:34:30.142Z,86.93
2023-06-28T23:36:58.320Z,86.90
2023-06-28T23:39:25.139Z,86.11
2023-06-28T23:41:51.604Z,86.34
2023-06-28T23:44:18.121Z,86.19
2023-06-28T23:46:45.946Z,87.24
2023-06-28T23:49:14.283Z,87.91
2023-06-28T23:51:41.372Z,87.77
2023-06-28T23:54:08.737Z,86.45
2023-06-28T23:56:35.372Z,86.68
2023-06-28T23:59:01.890Z,87.31
